Архив погоды в Марресаля

Метеограмма Марресаля
Вторник, 14 Августа
Время местн. Темп Ветер Видим Явления Облачность нижн/средн/верх Атм. давл. Влжн Точка росы ВНГО R Сост. почвы Tg s
Напр Скр Прв ур.ст ур.м изм
17:00 +12.6° Ю 7 13 10 км - преимущественно облачно 742 744 +0.9 85% +10.1° 1.5 км - - - -
14:00 +11.6° Ю,Ю-З 3 - 10 км - облачно с прояснениями 741 743 +0.7 94% +10.7° 1 км - - - -
11:00 +9.7° Ю 9 - 4 км дымка преимущественно облачно 740 742 -0.1 99% +9.6° 1 км - - - -
08:00 +9.1° Ю 6 - 2 км дымка облачно 740 742 0 100% +9.1° 200 м 2 Влажная (без луж) - -
05:00 +9.2° В 7 - 4 км дымка {ливневые осадки} переменная облачность 740 742 -1.7 100% +9.2° 1 км - - - -
02:00 +8.4° В,Ю-В 6 - 4 км слабый ливневый дождь облачно 742 744 -2 100% +8.4° 600 м - - - -
Понедельник, 13 Августа
Время местн. Темп Ветер Видим Явления Облачность нижн/средн/верх Атм. давл. Влжн Точка росы ВНГО R Сост. почвы Tg s
Напр Скр Прв ур.ст ур.м изм
23:00 +7.1° Ю-В 4 - 4 км дымка облачно 744 746 -1.1 100% +7.1° 1 км - - - -
20:00 +6.7° Ю 4 - 4 км дымка переменная облачность 745 747 -0.3 96% +6.1° 300 м 0 - - -
17:00 +5.1° Ю,Ю-З 4 - 2 км дымка облачно 745 747 +0.2 100% +5.1° 1 км - - - -
14:00 +4.9° З,Ю-З 6 - 2 км дымка облачно 745 747 +0.6 100% +4.9° 600 м - - - -
11:00 +4.6° З 6 - 2 км дымка облачно 744 747 +0.5 100% +4.6° 600 м - - - -
08:00 +4.3° З 6 - 2 км дымка облачно 744 746 -0.2 100% +4.3° 1 км 0.6 Влажная (без луж) - -
05:00 +3.7° З 6 - 2 км дымка {туман} облачно 744 746 -0.5 100% +3.7° 200 м - - - -
02:00 +3° З 5 - 2 км дымка облачно с прояснениями 744 747 -0.5 100% +3° 1 км - - - -
Воскресенье, 12 Августа
Время местн. Темп Ветер Видим Явления Облачность нижн/средн/верх Атм. давл. Влжн Точка росы ВНГО R Сост. почвы Tg s
Напр Скр Прв ур.ст ур.м изм
23:00 +2.7° З,С-З 6 - 2 км дымка {морось} преимущественно облачно 745 747 +0.2 100% +2.7° 1 км - - - -
20:00 +2.8° З,С-З 8 11 2 км морось или снежные зерна {морось} облачно 745 747 +0.8 100% +2.8° 100 м 3 - - -
17:00 +3.2° З,С-З 8 11 2 км дымка {ливневые осадки, туман} облачно 744 746 +1.4 100% +3.2° 100 м - - - -
14:00 +3.6° С-З 9 12 1 км туман {ливневые осадки} облачно 742 745 +1.1 100% +3.6° 100 м - - - -
11:00 +3.7° С-З 8 10 0.5 км туман неба не видно 741 744 0 100% +3.7° - - - - -
08:00 +2.9° З,С-З 6 10 500 м туман неба не видно 741 744 -0.2 100% +2.9° - 1 Влажная (без луж) +1° -
05:00 +2.6° З,С-З 5 - 4 км дымка {морось, туман} облачно 741 744 +0.9 100% +2.6° 600 м - - - -
02:00 +2° С 6 - 2 км туман {морось} облачно 741 743 +0.8 100% +2° 300 м - - - -
Суббота, 11 Августа
Время местн. Темп Ветер Видим Явления Облачность нижн/средн/верх Атм. давл. Влжн Точка росы ВНГО R Сост. почвы Tg s
Напр Скр Прв ур.ст ур.м изм
23:00 +3.6° З,С-З 11 15 1 км слабая морось с перерывами {ливневые осадки} облачно 740 742 -1.2 100% +3.6° 100 м - - - -
20:00 +3.5° З 10 14 1 км слабый ливневый дождь облачно 741 743 -1.1 100% +3.5° 100 м 3 - - -
17:00 +3.6° З 8 11 2 км слабый ливневый дождь облачно 742 744 -1.1 100% +3.6° 200 м - - - -
14:00 +2.6° З,С-З 5 - 2 км дымка облачно 743 746 +0.2 100% +2.6° 200 м - - - -